Monument Lake Park, Colorado
Current Conditions -  °F | °C
As of 8:53 AM on Thursday 29 Jan 2015 (Local Time) from KRTN Reporting Station
Overcast Overcast  
Wind Chill:   Ceiling: 6000
Heat Index:   Visibility: 10mi
Dew Point: -3°   Wind: 0mph
Humidity: 62%   Direction: NA
Pressure: 30.49"   Gusts: NA
Location:  37.1566°N, 104.956°W
Report Text: KRTN 291553Z AUTO 00000KT 10SM OVC060 03/M03 A3049 RMK AO2 SLP317 T00331033
Loading
Personal Weather Stations






























Interactive Weather Map New forecast layout! Learn more

10-Day Weather Forecast

Advertisements
Track Severe Weather on mobile